sensor_id;sensor_type;location;lat;lon;timestamp;temperature;humidity
10294;DHT22;5192;50.328;7.610;2023-05-24T00:00:30;8.00;55.10
10294;DHT22;5192;50.328;7.610;2023-05-24T00:02:58;8.10;55.20
10294;DHT22;5192;50.328;7.610;2023-05-24T00:05:26;8.00;54.40
10294;DHT22;5192;50.328;7.610;2023-05-24T00:07:58;7.90;54.20
10294;DHT22;5192;50.328;7.610;2023-05-24T00:10:25;7.90;54.60
10294;DHT22;5192;50.328;7.610;2023-05-24T00:12:53;7.90;55.30
10294;DHT22;5192;50.328;7.610;2023-05-24T00:15:19;7.90;55.10
10294;DHT22;5192;50.328;7.610;2023-05-24T00:17:46;7.80;52.30
10294;DHT22;5192;50.328;7.610;2023-05-24T00:20:14;7.80;53.80
10294;DHT22;5192;50.328;7.610;2023-05-24T00:22:41;7.80;54.10
10294;DHT22;5192;50.328;7.610;2023-05-24T00:25:08;7.80;54.80
10294;DHT22;5192;50.328;7.610;2023-05-24T00:27:35;7.70;54.20
10294;DHT22;5192;50.328;7.610;2023-05-24T00:30:03;7.60;53.90
10294;DHT22;5192;50.328;7.610;2023-05-24T00:32:30;7.60;54.30
10294;DHT22;5192;50.328;7.610;2023-05-24T00:34:57;7.60;54.70
10294;DHT22;5192;50.328;7.610;2023-05-24T00:37:23;7.60;55.20
10294;DHT22;5192;50.328;7.610;2023-05-24T00:39:51;7.60;54.50
10294;DHT22;5192;50.328;7.610;2023-05-24T00:42:18;7.60;54.20
10294;DHT22;5192;50.328;7.610;2023-05-24T00:44:46;7.60;53.60
10294;DHT22;5192;50.328;7.610;2023-05-24T00:47:14;7.60;54.30
10294;DHT22;5192;50.328;7.610;2023-05-24T00:49:41;7.50;55.00
10294;DHT22;5192;50.328;7.610;2023-05-24T00:52:07;7.50;54.70
10294;DHT22;5192;50.328;7.610;2023-05-24T00:54:34;7.50;55.00
10294;DHT22;5192;50.328;7.610;2023-05-24T00:57:01;7.50;54.60
10294;DHT22;5192;50.328;7.610;2023-05-24T00:59:28;7.50;54.10
10294;DHT22;5192;50.328;7.610;2023-05-24T01:01:56;7.40;53.40
10294;DHT22;5192;50.328;7.610;2023-05-24T01:04:23;7.30;52.70
10294;DHT22;5192;50.328;7.610;2023-05-24T01:07:13;7.30;51.80
10294;DHT22;5192;50.328;7.610;2023-05-24T01:10:00;7.40;49.50
10294;DHT22;5192;50.328;7.610;2023-05-24T01:12:32;7.30;49.60
10294;DHT22;5192;50.328;7.610;2023-05-24T01:18:06;7.20;50.90
10294;DHT22;5192;50.328;7.610;2023-05-24T01:20:42;7.20;50.90
10294;DHT22;5192;50.328;7.610;2023-05-24T01:23:29;7.20;51.50
10294;DHT22;5192;50.328;7.610;2023-05-24T01:26:39;7.20;51.30
10294;DHT22;5192;50.328;7.610;2023-05-24T01:29:05;7.10;52.00
10294;DHT22;5192;50.328;7.610;2023-05-24T01:31:33;7.10;52.70
10294;DHT22;5192;50.328;7.610;2023-05-24T01:34:02;7.10;52.60
10294;DHT22;5192;50.328;7.610;2023-05-24T01:36:28;7.00;52.90
10294;DHT22;5192;50.328;7.610;2023-05-24T01:38:56;7.10;53.20
10294;DHT22;5192;50.328;7.610;2023-05-24T01:41:42;7.00;52.70
10294;DHT22;5192;50.328;7.610;2023-05-24T01:50:36;6.80;53.70
10294;DHT22;5192;50.328;7.610;2023-05-24T01:53:08;6.80;54.80
10294;DHT22;5192;50.328;7.610;2023-05-24T01:55:37;6.80;55.20
10294;DHT22;5192;50.328;7.610;2023-05-24T01:58:09;6.80;55.40
10294;DHT22;5192;50.328;7.610;2023-05-24T02:00:38;6.70;55.40
10294;DHT22;5192;50.328;7.610;2023-05-24T02:03:06;6.80;55.40
10294;DHT22;5192;50.328;7.610;2023-05-24T02:05:34;6.70;55.20
10294;DHT22;5192;50.328;7.610;2023-05-24T02:08:03;6.70;56.00
10294;DHT22;5192;50.328;7.610;2023-05-24T02:10:31;6.60;56.20
10294;DHT22;5192;50.328;7.610;2023-05-24T02:12:57;6.60;56.60
10294;DHT22;5192;50.328;7.610;2023-05-24T02:15:25;6.60;56.70
10294;DHT22;5192;50.328;7.610;2023-05-24T02:17:55;6.50;56.20
10294;DHT22;5192;50.328;7.610;2023-05-24T02:20:23;6.50;56.40
10294;DHT22;5192;50.328;7.610;2023-05-24T02:22:49;6.40;56.70
10294;DHT22;5192;50.328;7.610;2023-05-24T02:25:18;6.40;57.50
10294;DHT22;5192;50.328;7.610;2023-05-24T02:27:44;6.30;56.10
10294;DHT22;5192;50.328;7.610;2023-05-24T02:30:13;6.30;56.50
10294;DHT22;5192;50.328;7.610;2023-05-24T02:32:40;6.30;56.90
10294;DHT22;5192;50.328;7.610;2023-05-24T02:35:07;6.30;57.20
10294;DHT22;5192;50.328;7.610;2023-05-24T02:37:34;6.20;57.70
10294;DHT22;5192;50.328;7.610;2023-05-24T02:40:01;6.20;58.00
10294;DHT22;5192;50.328;7.610;2023-05-24T02:42:28;6.10;58.40
10294;DHT22;5192;50.328;7.610;2023-05-24T02:44:56;6.10;59.10
10294;DHT22;5192;50.328;7.610;2023-05-24T02:47:25;6.10;59.30
10294;DHT22;5192;50.328;7.610;2023-05-24T02:49:56;6.00;59.40
10294;DHT22;5192;50.328;7.610;2023-05-24T02:52:22;5.90;59.90
10294;DHT22;5192;50.328;7.610;2023-05-24T02:54:51;5.90;60.10
10294;DHT22;5192;50.328;7.610;2023-05-24T02:57:18;5.90;60.50
10294;DHT22;5192;50.328;7.610;2023-05-24T02:59:46;5.90;61.00
10294;DHT22;5192;50.328;7.610;2023-05-24T03:02:14;5.90;60.80
10294;DHT22;5192;50.328;7.610;2023-05-24T03:04:45;5.80;61.00
10294;DHT22;5192;50.328;7.610;2023-05-24T03:07:11;5.80;61.00
10294;DHT22;5192;50.328;7.610;2023-05-24T03:09:43;5.80;60.70
10294;DHT22;5192;50.328;7.610;2023-05-24T03:12:08;5.70;60.20
10294;DHT22;5192;50.328;7.610;2023-05-24T03:14:35;5.70;60.50
10294;DHT22;5192;50.328;7.610;2023-05-24T03:17:02;5.70;60.70
10294;DHT22;5192;50.328;7.610;2023-05-24T03:19:29;5.70;60.90
10294;DHT22;5192;50.328;7.610;2023-05-24T03:21:59;5.70;60.70
10294;DHT22;5192;50.328;7.610;2023-05-24T03:24:26;5.60;60.70
10294;DHT22;5192;50.328;7.610;2023-05-24T03:26:54;5.60;61.00
10294;DHT22;5192;50.328;7.610;2023-05-24T03:29:21;5.60;61.30
10294;DHT22;5192;50.328;7.610;2023-05-24T03:31:47;5.60;62.10
10294;DHT22;5192;50.328;7.610;2023-05-24T03:34:14;5.60;61.70
10294;DHT22;5192;50.328;7.610;2023-05-24T03:36:41;5.60;62.20
10294;DHT22;5192;50.328;7.610;2023-05-24T03:39:08;5.60;62.60
10294;DHT22;5192;50.328;7.610;2023-05-24T03:41:35;5.60;62.80
10294;DHT22;5192;50.328;7.610;2023-05-24T03:44:01;5.70;62.70
10294;DHT22;5192;50.328;7.610;2023-05-24T03:46:37;5.50;62.40
10294;DHT22;5192;50.328;7.610;2023-05-24T03:49:05;5.50;63.00
10294;DHT22;5192;50.328;7.610;2023-05-24T03:51:34;5.50;63.70
10294;DHT22;5192;50.328;7.610;2023-05-24T03:54:02;5.50;64.00
10294;DHT22;5192;50.328;7.610;2023-05-24T03:56:29;5.60;64.50
10294;DHT22;5192;50.328;7.610;2023-05-24T03:58:57;5.50;64.60
10294;DHT22;5192;50.328;7.610;2023-05-24T04:01:26;5.50;65.30
10294;DHT22;5192;50.328;7.610;2023-05-24T04:03:54;5.50;65.60
10294;DHT22;5192;50.328;7.610;2023-05-24T04:06:22;5.50;65.30
10294;DHT22;5192;50.328;7.610;2023-05-24T04:08:55;5.40;66.00
10294;DHT22;5192;50.328;7.610;2023-05-24T04:11:23;5.40;65.60
10294;DHT22;5192;50.328;7.610;2023-05-24T04:13:53;5.40;65.80
10294;DHT22;5192;50.328;7.610;2023-05-24T04:16:23;5.40;65.90
10294;DHT22;5192;50.328;7.610;2023-05-24T04:18:56;5.50;66.20
10294;DHT22;5192;50.328;7.610;2023-05-24T04:21:23;5.30;66.50
10294;DHT22;5192;50.328;7.610;2023-05-24T04:23:50;5.30;66.80
10294;DHT22;5192;50.328;7.610;2023-05-24T04:26:17;5.40;67.20
10294;DHT22;5192;50.328;7.610;2023-05-24T04:28:44;5.40;67.60
10294;DHT22;5192;50.328;7.610;2023-05-24T04:31:12;5.40;67.90
10294;DHT22;5192;50.328;7.610;2023-05-24T04:33:40;5.50;68.10
10294;DHT22;5192;50.328;7.610;2023-05-24T04:36:08;5.50;68.20
10294;DHT22;5192;50.328;7.610;2023-05-24T04:38:38;5.40;68.10
10294;DHT22;5192;50.328;7.610;2023-05-24T04:41:06;5.60;68.30
10294;DHT22;5192;50.328;7.610;2023-05-24T04:43:33;5.50;68.60
10294;DHT22;5192;50.328;7.610;2023-05-24T04:46:01;5.50;68.40
10294;DHT22;5192;50.328;7.610;2023-05-24T04:48:28;5.50;68.40
10294;DHT22;5192;50.328;7.610;2023-05-24T04:50:56;5.60;68.80
10294;DHT22;5192;50.328;7.610;2023-05-24T04:53:43;5.50;68.80
10294;DHT22;5192;50.328;7.610;2023-05-24T04:56:10;5.50;68.70
10294;DHT22;5192;50.328;7.610;2023-05-24T04:58:40;5.60;68.70
10294;DHT22;5192;50.328;7.610;2023-05-24T05:01:08;5.60;68.70
10294;DHT22;5192;50.328;7.610;2023-05-24T05:03:36;5.60;68.90
10294;DHT22;5192;50.328;7.610;2023-05-24T05:06:03;5.60;69.30
10294;DHT22;5192;50.328;7.610;2023-05-24T05:08:29;5.70;69.30
10294;DHT22;5192;50.328;7.610;2023-05-24T05:10:57;5.70;69.40
10294;DHT22;5192;50.328;7.610;2023-05-24T05:13:24;5.90;69.30
10294;DHT22;5192;50.328;7.610;2023-05-24T05:15:53;5.90;69.00
10294;DHT22;5192;50.328;7.610;2023-05-24T05:18:20;5.90;68.70
10294;DHT22;5192;50.328;7.610;2023-05-24T05:20:48;5.90;68.50
10294;DHT22;5192;50.328;7.610;2023-05-24T05:23:15;6.00;68.00
10294;DHT22;5192;50.328;7.610;2023-05-24T05:25:43;6.00;67.10
10294;DHT22;5192;50.328;7.610;2023-05-24T05:28:11;6.10;66.50
10294;DHT22;5192;50.328;7.610;2023-05-24T05:30:38;6.10;65.40
10294;DHT22;5192;50.328;7.610;2023-05-24T05:33:03;6.20;64.40
10294;DHT22;5192;50.328;7.610;2023-05-24T05:35:32;6.30;63.00
10294;DHT22;5192;50.328;7.610;2023-05-24T05:38:00;6.40;61.40
10294;DHT22;5192;50.328;7.610;2023-05-24T05:40:27;6.70;61.10
10294;DHT22;5192;50.328;7.610;2023-05-24T05:42:52;6.60;60.70
10294;DHT22;5192;50.328;7.610;2023-05-24T05:45:19;6.70;59.50
10294;DHT22;5192;50.328;7.610;2023-05-24T05:47:45;6.80;57.00
10294;DHT22;5192;50.328;7.610;2023-05-24T05:50:16;6.80;53.40
10294;DHT22;5192;50.328;7.610;2023-05-24T05:52:43;6.90;50.50
10294;DHT22;5192;50.328;7.610;2023-05-24T05:55:11;7.00;49.70
10294;DHT22;5192;50.328;7.610;2023-05-24T05:57:38;7.10;44.90
10294;DHT22;5192;50.328;7.610;2023-05-24T06:00:07;7.20;42.90
10294;DHT22;5192;50.328;7.610;2023-05-24T06:02:36;7.20;40.30
10294;DHT22;5192;50.328;7.610;2023-05-24T06:05:05;7.30;39.90
10294;DHT22;5192;50.328;7.610;2023-05-24T06:07:32;7.40;38.10
10294;DHT22;5192;50.328;7.610;2023-05-24T06:10:02;7.40;37.90
10294;DHT22;5192;50.328;7.610;2023-05-24T06:12:29;7.50;38.50
10294;DHT22;5192;50.328;7.610;2023-05-24T06:14:55;7.60;36.50
10294;DHT22;5192;50.328;7.610;2023-05-24T06:17:24;7.70;34.20
10294;DHT22;5192;50.328;7.610;2023-05-24T06:19:52;7.70;33.90
10294;DHT22;5192;50.328;7.610;2023-05-24T06:22:23;7.80;34.30
10294;DHT22;5192;50.328;7.610;2023-05-24T06:24:50;8.00;32.10
10294;DHT22;5192;50.328;7.610;2023-05-24T06:27:18;7.90;30.20
10294;DHT22;5192;50.328;7.610;2023-05-24T06:29:46;8.10;30.40
10294;DHT22;5192;50.328;7.610;2023-05-24T06:32:12;8.20;31.00
10294;DHT22;5192;50.328;7.610;2023-05-24T06:34:37;8.50;27.80
10294;DHT22;5192;50.328;7.610;2023-05-24T06:37:03;8.50;27.20
10294;DHT22;5192;50.328;7.610;2023-05-24T06:39:30;8.80;28.10
10294;DHT22;5192;50.328;7.610;2023-05-24T06:41:58;8.90;24.80
10294;DHT22;5192;50.328;7.610;2023-05-24T06:44:25;9.00;20.50
10294;DHT22;5192;50.328;7.610;2023-05-24T06:47:00;9.00;21.20
10294;DHT22;5192;50.328;7.610;2023-05-24T06:49:28;9.00;21.70
10294;DHT22;5192;50.328;7.610;2023-05-24T06:51:58;9.10;19.90
10294;DHT22;5192;50.328;7.610;2023-05-24T06:54:25;9.00;17.90
10294;DHT22;5192;50.328;7.610;2023-05-24T06:56:51;9.10;20.10
10294;DHT22;5192;50.328;7.610;2023-05-24T06:59:19;9.30;17.30
10294;DHT22;5192;50.328;7.610;2023-05-24T07:01:48;9.20;19.10
10294;DHT22;5192;50.328;7.610;2023-05-24T07:04:19;9.30;16.90
10294;DHT22;5192;50.328;7.610;2023-05-24T07:06:45;9.30;16.20
10294;DHT22;5192;50.328;7.610;2023-05-24T07:09:12;9.40;17.90
10294;DHT22;5192;50.328;7.610;2023-05-24T07:11:39;9.40;13.10
10294;DHT22;5192;50.328;7.610;2023-05-24T07:14:07;9.30;13.30
10294;DHT22;5192;50.328;7.610;2023-05-24T07:16:33;9.60;14.60
10294;DHT22;5192;50.328;7.610;2023-05-24T07:18:59;9.50;13.60
10294;DHT22;5192;50.328;7.610;2023-05-24T07:21:26;9.60;12.60
10294;DHT22;5192;50.328;7.610;2023-05-24T07:23:53;9.60;14.60
10294;DHT22;5192;50.328;7.610;2023-05-24T07:26:20;9.70;13.10
10294;DHT22;5192;50.328;7.610;2023-05-24T07:28:49;9.80;12.30
10294;DHT22;5192;50.328;7.610;2023-05-24T07:31:15;10.00;8.70
10294;DHT22;5192;50.328;7.610;2023-05-24T07:33:41;10.10;9.10
10294;DHT22;5192;50.328;7.610;2023-05-24T07:36:07;10.10;6.00
10294;DHT22;5192;50.328;7.610;2023-05-24T07:38:34;10.10;8.40
10294;DHT22;5192;50.328;7.610;2023-05-24T07:41:02;10.20;9.30
10294;DHT22;5192;50.328;7.610;2023-05-24T07:43:30;10.20;11.20
10294;DHT22;5192;50.328;7.610;2023-05-24T07:45:57;10.30;7.20
10294;DHT22;5192;50.328;7.610;2023-05-24T07:48:25;10.20;6.90
10294;DHT22;5192;50.328;7.610;2023-05-24T07:50:52;10.30;7.50
10294;DHT22;5192;50.328;7.610;2023-05-24T07:53:19;10.30;10.50
10294;DHT22;5192;50.328;7.610;2023-05-24T07:55:48;10.30;5.00
10294;DHT22;5192;50.328;7.610;2023-05-24T07:58:16;10.30;7.90
10294;DHT22;5192;50.328;7.610;2023-05-24T08:00:44;10.40;5.30
10294;DHT22;5192;50.328;7.610;2023-05-24T08:03:11;10.40;4.30
10294;DHT22;5192;50.328;7.610;2023-05-24T08:05:41;10.60;4.10
10294;DHT22;5192;50.328;7.610;2023-05-24T08:08:09;10.70;1.30
10294;DHT22;5192;50.328;7.610;2023-05-24T08:10:37;11.00;1.30
10294;DHT22;5192;50.328;7.610;2023-05-24T08:13:05;11.20;1.00
10294;DHT22;5192;50.328;7.610;2023-05-24T08:15:32;11.30;1.00
10294;DHT22;5192;50.328;7.610;2023-05-24T08:17:59;11.40;1.00
10294;DHT22;5192;50.328;7.610;2023-05-24T08:20:26;11.50;1.00
10294;DHT22;5192;50.328;7.610;2023-05-24T08:22:53;11.50;1.00
10294;DHT22;5192;50.328;7.610;2023-05-24T08:25:21;11.50;1.00
10294;DHT22;5192;50.328;7.610;2023-05-24T08:27:48;11.60;1.00
10294;DHT22;5192;50.328;7.610;2023-05-24T08:30:15;11.60;1.00
10294;DHT22;5192;50.328;7.610;2023-05-24T08:32:43;11.60;1.00
10294;DHT22;5192;50.328;7.610;2023-05-24T08:35:08;11.50;1.00
10294;DHT22;5192;50.328;7.610;2023-05-24T08:37:36;11.60;1.00
10294;DHT22;5192;50.328;7.610;2023-05-24T08:40:01;11.50;1.00
10294;DHT22;5192;50.328;7.610;2023-05-24T08:42:31;11.60;1.00
10294;DHT22;5192;50.328;7.610;2023-05-24T08:45:10;11.60;1.00
10294;DHT22;5192;50.328;7.610;2023-05-24T08:47:40;11.70;1.00
10294;DHT22;5192;50.328;7.610;2023-05-24T08:50:09;11.70;1.00
10294;DHT22;5192;50.328;7.610;2023-05-24T08:52:37;11.80;1.00
10294;DHT22;5192;50.328;7.610;2023-05-24T08:55:05;12.00;1.00
10294;DHT22;5192;50.328;7.610;2023-05-24T08:57:32;12.00;1.00
10294;DHT22;5192;50.328;7.610;2023-05-24T09:00:01;12.10;1.00
10294;DHT22;5192;50.328;7.610;2023-05-24T09:02:29;12.20;1.00
10294;DHT22;5192;50.328;7.610;2023-05-24T09:05:11;12.20;1.00
10294;DHT22;5192;50.328;7.610;2023-05-24T09:07:42;12.20;1.00
10294;DHT22;5192;50.328;7.610;2023-05-24T09:10:11;12.40;1.00
10294;DHT22;5192;50.328;7.610;2023-05-24T09:12:39;12.70;1.00
10294;DHT22;5192;50.328;7.610;2023-05-24T09:15:08;12.70;1.00
10294;DHT22;5192;50.328;7.610;2023-05-24T09:17:35;12.70;1.00
10294;DHT22;5192;50.328;7.610;2023-05-24T09:20:01;12.60;1.00
10294;DHT22;5192;50.328;7.610;2023-05-24T09:22:33;12.60;1.00
10294;DHT22;5192;50.328;7.610;2023-05-24T09:25:08;12.50;1.00
10294;DHT22;5192;50.328;7.610;2023-05-24T09:27:49;12.40;1.00
10294;DHT22;5192;50.328;7.610;2023-05-24T09:30:18;12.20;1.00
10294;DHT22;5192;50.328;7.610;2023-05-24T09:35:25;12.00;1.00
10294;DHT22;5192;50.328;7.610;2023-05-24T09:37:59;12.10;1.00
10294;DHT22;5192;50.328;7.610;2023-05-24T09:40:27;12.20;1.00
10294;DHT22;5192;50.328;7.610;2023-05-24T09:43:05;12.40;1.00
10294;DHT22;5192;50.328;7.610;2023-05-24T09:45:45;12.50;1.00
10294;DHT22;5192;50.328;7.610;2023-05-24T09:48:16;12.50;1.00
10294;DHT22;5192;50.328;7.610;2023-05-24T09:50:44;12.50;1.00
10294;DHT22;5192;50.328;7.610;2023-05-24T09:53:27;12.70;1.00
10294;DHT22;5192;50.328;7.610;2023-05-24T09:55:54;13.00;1.00
10294;DHT22;5192;50.328;7.610;2023-05-24T09:58:21;13.20;1.00
10294;DHT22;5192;50.328;7.610;2023-05-24T10:00:49;13.60;1.00
10294;DHT22;5192;50.328;7.610;2023-05-24T10:03:14;13.60;1.00
10294;DHT22;5192;50.328;7.610;2023-05-24T10:05:43;13.70;1.00
10294;DHT22;5192;50.328;7.610;2023-05-24T10:08:11;13.80;1.00
10294;DHT22;5192;50.328;7.610;2023-05-24T10:10:42;13.50;1.00
10294;DHT22;5192;50.328;7.610;2023-05-24T10:13:09;13.50;1.00
10294;DHT22;5192;50.328;7.610;2023-05-24T10:15:34;13.50;1.00
10294;DHT22;5192;50.328;7.610;2023-05-24T10:18:02;13.40;1.00
10294;DHT22;5192;50.328;7.610;2023-05-24T10:20:34;13.60;1.00
10294;DHT22;5192;50.328;7.610;2023-05-24T10:23:02;13.70;1.00
10294;DHT22;5192;50.328;7.610;2023-05-24T10:25:31;13.80;1.00
10294;DHT22;5192;50.328;7.610;2023-05-24T10:28:03;14.00;1.00
10294;DHT22;5192;50.328;7.610;2023-05-24T10:30:43;14.20;1.00
10294;DHT22;5192;50.328;7.610;2023-05-24T10:33:23;14.30;1.00
10294;DHT22;5192;50.328;7.610;2023-05-24T10:35:49;14.30;1.00
10294;DHT22;5192;50.328;7.610;2023-05-24T10:38:16;14.10;1.00
10294;DHT22;5192;50.328;7.610;2023-05-24T10:40:46;14.20;1.00
10294;DHT22;5192;50.328;7.610;2023-05-24T10:43:13;14.50;1.00
10294;DHT22;5192;50.328;7.610;2023-05-24T10:45:40;14.50;1.00
10294;DHT22;5192;50.328;7.610;2023-05-24T10:50:55;14.60;1.00
10294;DHT22;5192;50.328;7.610;2023-05-24T10:53:26;14.50;1.00
10294;DHT22;5192;50.328;7.610;2023-05-24T10:56:01;14.50;1.00
10294;DHT22;5192;50.328;7.610;2023-05-24T11:01:30;14.60;1.00
10294;DHT22;5192;50.328;7.610;2023-05-24T11:04:15;14.50;1.00
10294;DHT22;5192;50.328;7.610;2023-05-24T11:06:56;14.90;1.00
10294;DHT22;5192;50.328;7.610;2023-05-24T11:09:26;15.00;1.00
10294;DHT22;5192;50.328;7.610;2023-05-24T11:12:01;14.80;1.00
10294;DHT22;5192;50.328;7.610;2023-05-24T11:14:33;14.80;1.00
10294;DHT22;5192;50.328;7.610;2023-05-24T11:17:01;15.00;1.00
10294;DHT22;5192;50.328;7.610;2023-05-24T11:19:44;15.10;1.00
10294;DHT22;5192;50.328;7.610;2023-05-24T11:22:13;15.30;1.00
10294;DHT22;5192;50.328;7.610;2023-05-24T11:24:46;15.40;1.00
10294;DHT22;5192;50.328;7.610;2023-05-24T11:27:13;15.50;1.00
10294;DHT22;5192;50.328;7.610;2023-05-24T11:29:47;15.40;1.00
10294;DHT22;5192;50.328;7.610;2023-05-24T11:32:20;15.30;1.00
10294;DHT22;5192;50.328;7.610;2023-05-24T11:34:48;15.20;1.00
10294;DHT22;5192;50.328;7.610;2023-05-24T11:37:17;15.10;1.00
10294;DHT22;5192;50.328;7.610;2023-05-24T11:39:51;15.00;1.00
10294;DHT22;5192;50.328;7.610;2023-05-24T11:42:20;14.80;1.00
10294;DHT22;5192;50.328;7.610;2023-05-24T11:44:49;14.80;1.00
10294;DHT22;5192;50.328;7.610;2023-05-24T11:47:16;14.90;1.00
10294;DHT22;5192;50.328;7.610;2023-05-24T11:49:51;15.00;1.00
10294;DHT22;5192;50.328;7.610;2023-05-24T11:52:19;14.90;1.00
10294;DHT22;5192;50.328;7.610;2023-05-24T11:54:48;15.10;1.00
10294;DHT22;5192;50.328;7.610;2023-05-24T11:57:17;15.10;1.00
10294;DHT22;5192;50.328;7.610;2023-05-24T11:59:44;15.10;1.00
10294;DHT22;5192;50.328;7.610;2023-05-24T12:02:12;15.30;1.00
10294;DHT22;5192;50.328;7.610;2023-05-24T12:04:39;15.30;1.00
10294;DHT22;5192;50.328;7.610;2023-05-24T12:07:10;15.30;1.00
10294;DHT22;5192;50.328;7.610;2023-05-24T12:09:39;15.30;1.00
10294;DHT22;5192;50.328;7.610;2023-05-24T12:12:06;15.10;1.00
10294;DHT22;5192;50.328;7.610;2023-05-24T12:14:34;15.10;1.00
10294;DHT22;5192;50.328;7.610;2023-05-24T12:17:02;15.00;1.00
10294;DHT22;5192;50.328;7.610;2023-05-24T12:19:32;15.00;1.00
10294;DHT22;5192;50.328;7.610;2023-05-24T12:22:06;14.90;1.00
10294;DHT22;5192;50.328;7.610;2023-05-24T12:24:34;14.90;1.00
10294;DHT22;5192;50.328;7.610;2023-05-24T12:27:02;15.00;1.00
10294;DHT22;5192;50.328;7.610;2023-05-24T12:29:39;14.80;1.00
10294;DHT22;5192;50.328;7.610;2023-05-24T12:32:07;14.90;1.00
10294;DHT22;5192;50.328;7.610;2023-05-24T12:34:41;14.90;1.00
10294;DHT22;5192;50.328;7.610;2023-05-24T12:37:10;15.00;1.00
10294;DHT22;5192;50.328;7.610;2023-05-24T12:39:38;15.10;1.00
10294;DHT22;5192;50.328;7.610;2023-05-24T12:42:09;15.20;1.00
10294;DHT22;5192;50.328;7.610;2023-05-24T12:44:39;15.30;1.00
10294;DHT22;5192;50.328;7.610;2023-05-24T12:47:08;15.60;1.00
10294;DHT22;5192;50.328;7.610;2023-05-24T12:49:35;15.80;1.00
10294;DHT22;5192;50.328;7.610;2023-05-24T12:52:02;15.80;1.00
10294;DHT22;5192;50.328;7.610;2023-05-24T12:54:29;15.90;1.00
10294;DHT22;5192;50.328;7.610;2023-05-24T12:56:56;15.50;1.00
10294;DHT22;5192;50.328;7.610;2023-05-24T12:59:27;15.50;1.00
10294;DHT22;5192;50.328;7.610;2023-05-24T13:01:54;15.30;1.00
10294;DHT22;5192;50.328;7.610;2023-05-24T13:04:21;15.20;1.00
10294;DHT22;5192;50.328;7.610;2023-05-24T13:06:51;15.10;1.00
10294;DHT22;5192;50.328;7.610;2023-05-24T13:09:18;15.10;1.00
10294;DHT22;5192;50.328;7.610;2023-05-24T13:12:06;15.20;1.00
10294;DHT22;5192;50.328;7.610;2023-05-24T13:14:35;15.50;1.00
10294;DHT22;5192;50.328;7.610;2023-05-24T13:17:01;15.80;1.00
10294;DHT22;5192;50.328;7.610;2023-05-24T13:19:29;16.10;1.00
10294;DHT22;5192;50.328;7.610;2023-05-24T13:21:55;16.40;1.00
10294;DHT22;5192;50.328;7.610;2023-05-24T13:24:24;16.30;1.00
10294;DHT22;5192;50.328;7.610;2023-05-24T13:26:51;16.10;1.00
10294;DHT22;5192;50.328;7.610;2023-05-24T13:29:17;15.90;1.00
10294;DHT22;5192;50.328;7.610;2023-05-24T13:31:44;15.70;1.00
10294;DHT22;5192;50.328;7.610;2023-05-24T13:34:11;15.60;1.00
10294;DHT22;5192;50.328;7.610;2023-05-24T13:36:41;15.30;1.00
10294;DHT22;5192;50.328;7.610;2023-05-24T13:39:13;15.20;1.00
10294;DHT22;5192;50.328;7.610;2023-05-24T13:41:38;15.00;1.00
10294;DHT22;5192;50.328;7.610;2023-05-24T13:44:05;14.90;1.00
10294;DHT22;5192;50.328;7.610;2023-05-24T13:46:33;14.80;1.00
10294;DHT22;5192;50.328;7.610;2023-05-24T13:49:03;14.70;1.00
10294;DHT22;5192;50.328;7.610;2023-05-24T13:51:31;14.60;1.00
10294;DHT22;5192;50.328;7.610;2023-05-24T13:53:59;14.70;1.00
10294;DHT22;5192;50.328;7.610;2023-05-24T13:56:27;14.80;1.00
10294;DHT22;5192;50.328;7.610;2023-05-24T13:59:03;14.90;1.00
10294;DHT22;5192;50.328;7.610;2023-05-24T14:01:28;14.80;1.00
10294;DHT22;5192;50.328;7.610;2023-05-24T14:03:56;14.80;1.00
10294;DHT22;5192;50.328;7.610;2023-05-24T14:06:24;14.90;1.00
10294;DHT22;5192;50.328;7.610;2023-05-24T14:08:51;14.80;1.00
10294;DHT22;5192;50.328;7.610;2023-05-24T14:11:19;14.70;1.00
10294;DHT22;5192;50.328;7.610;2023-05-24T14:13:48;14.60;1.00
10294;DHT22;5192;50.328;7.610;2023-05-24T14:16:17;14.70;1.00
10294;DHT22;5192;50.328;7.610;2023-05-24T14:18:44;14.70;1.00
10294;DHT22;5192;50.328;7.610;2023-05-24T14:21:19;14.50;1.00
10294;DHT22;5192;50.328;7.610;2023-05-24T14:23:48;14.40;1.00
10294;DHT22;5192;50.328;7.610;2023-05-24T14:26:15;14.30;1.00
10294;DHT22;5192;50.328;7.610;2023-05-24T14:28:47;14.30;1.00
10294;DHT22;5192;50.328;7.610;2023-05-24T14:31:14;14.30;1.00
10294;DHT22;5192;50.328;7.610;2023-05-24T14:33:42;14.40;1.00
10294;DHT22;5192;50.328;7.610;2023-05-24T14:36:10;14.60;1.00
10294;DHT22;5192;50.328;7.610;2023-05-24T14:38:37;14.70;1.00
10294;DHT22;5192;50.328;7.610;2023-05-24T14:41:04;14.90;1.00
10294;DHT22;5192;50.328;7.610;2023-05-24T14:43:32;15.00;1.00
10294;DHT22;5192;50.328;7.610;2023-05-24T14:46:00;15.00;1.00
10294;DHT22;5192;50.328;7.610;2023-05-24T14:48:26;15.00;1.00
10294;DHT22;5192;50.328;7.610;2023-05-24T14:50:54;14.90;1.00
10294;DHT22;5192;50.328;7.610;2023-05-24T14:53:21;14.90;1.00
10294;DHT22;5192;50.328;7.610;2023-05-24T14:55:48;14.90;1.00
10294;DHT22;5192;50.328;7.610;2023-05-24T14:58:15;15.00;1.00
10294;DHT22;5192;50.328;7.610;2023-05-24T15:00:43;15.20;1.00
10294;DHT22;5192;50.328;7.610;2023-05-24T15:03:09;15.40;1.00
10294;DHT22;5192;50.328;7.610;2023-05-24T15:05:38;15.40;1.00
10294;DHT22;5192;50.328;7.610;2023-05-24T15:08:11;15.60;1.00
10294;DHT22;5192;50.328;7.610;2023-05-24T15:10:37;15.70;1.00
10294;DHT22;5192;50.328;7.610;2023-05-24T15:13:10;15.90;1.00
10294;DHT22;5192;50.328;7.610;2023-05-24T15:15:37;16.10;1.00
10294;DHT22;5192;50.328;7.610;2023-05-24T15:18:04;16.20;1.00
10294;DHT22;5192;50.328;7.610;2023-05-24T15:20:33;16.50;1.00
10294;DHT22;5192;50.328;7.610;2023-05-24T15:23:03;16.80;1.00
10294;DHT22;5192;50.328;7.610;2023-05-24T15:25:31;16.70;1.00
10294;DHT22;5192;50.328;7.610;2023-05-24T15:27:56;16.60;1.00
10294;DHT22;5192;50.328;7.610;2023-05-24T15:30:23;16.40;1.00
10294;DHT22;5192;50.328;7.610;2023-05-24T15:32:50;16.10;1.00
10294;DHT22;5192;50.328;7.610;2023-05-24T15:35:16;16.10;1.00
10294;DHT22;5192;50.328;7.610;2023-05-24T15:37:43;16.00;1.00
10294;DHT22;5192;50.328;7.610;2023-05-24T15:40:11;16.20;1.00
10294;DHT22;5192;50.328;7.610;2023-05-24T15:42:38;16.20;1.00
10294;DHT22;5192;50.328;7.610;2023-05-24T15:45:05;16.30;1.00
10294;DHT22;5192;50.328;7.610;2023-05-24T15:47:32;16.20;1.00
10294;DHT22;5192;50.328;7.610;2023-05-24T15:50:06;16.20;1.00
10294;DHT22;5192;50.328;7.610;2023-05-24T15:52:34;16.10;1.00
10294;DHT22;5192;50.328;7.610;2023-05-24T15:55:01;16.10;1.00
10294;DHT22;5192;50.328;7.610;2023-05-24T15:57:29;16.30;1.00
10294;DHT22;5192;50.328;7.610;2023-05-24T15:59:57;16.40;1.00
10294;DHT22;5192;50.328;7.610;2023-05-24T16:02:24;16.50;1.00
10294;DHT22;5192;50.328;7.610;2023-05-24T16:04:51;16.60;1.00
10294;DHT22;5192;50.328;7.610;2023-05-24T16:07:18;16.60;1.00
10294;DHT22;5192;50.328;7.610;2023-05-24T16:09:47;16.30;1.00
10294;DHT22;5192;50.328;7.610;2023-05-24T16:12:17;15.90;1.00
10294;DHT22;5192;50.328;7.610;2023-05-24T16:14:43;15.60;1.00
10294;DHT22;5192;50.328;7.610;2023-05-24T16:17:12;15.50;1.00
10294;DHT22;5192;50.328;7.610;2023-05-24T16:19:41;15.10;1.00
10294;DHT22;5192;50.328;7.610;2023-05-24T16:22:08;15.00;1.00
10294;DHT22;5192;50.328;7.610;2023-05-24T16:24:35;14.80;1.00
10294;DHT22;5192;50.328;7.610;2023-05-24T16:27:02;14.80;1.00
10294;DHT22;5192;50.328;7.610;2023-05-24T16:29:30;14.80;1.00